Time;durP1;ratioP1;P1;durP2;ratioP2;P2;SDS_P1;SDS_P2;PMS_P1;PMS_P2;Temp;Humidity;BMP_temperature;BMP_pressure;BME280_temperature;BME280_humidity;BME280_pressure;Samples;Min_cycle;Max_cycle;Signal;HPM_P1;HPM_P2
2022/11/06 00:01:22;;;;;;;25.38;13.38;;;;;;;1.66;100.00;99231.03;5032965;28;20021;-76
2022/11/06 00:03:51;;;;;;;21.67;12.20;;;;;;;1.85;100.00;99248.91;5048679;28;20104;-76
2022/11/06 00:09:03;;;;;;;24.40;11.75;;;;;;;1.73;100.00;99249.03;5044323;28;20442;-76
2022/11/06 00:11:29;;;;;;;28.02;13.18;;;;;;;1.70;100.00;99227.97;5025793;28;20179;-76
2022/11/06 00:13:54;;;;;;;26.42;12.82;;;;;;;1.66;100.00;99231.03;5032171;28;20028;-76
2022/11/06 00:16:20;;;;;;;25.00;13.07;;;;;;;1.81;100.00;99239.47;5050166;28;20073;-76
2022/11/06 00:18:47;;;;;;;29.23;14.73;;;;;;;1.81;100.00;99237.66;5031751;28;20047;-76
2022/11/06 00:21:19;;;;;;;27.10;13.38;;;;;;;1.92;100.00;99234.88;5030902;28;20509;-77
2022/11/06 00:23:45;;;;;;;23.75;11.73;;;;;;;1.87;100.00;99228.28;5049131;28;20025;-76
2022/11/06 00:26:17;;;;;;;20.75;11.20;;;;;;;1.78;100.00;99227.25;5049939;28;20025;-76
2022/11/06 00:28:43;;;;;;;25.80;13.00;;;;;;;1.89;100.00;99245.81;5052598;28;20060;-76
2022/11/06 00:31:17;;;;;;;26.55;12.30;;;;;;;1.94;100.00;99251.59;5049243;28;20043;-75
2022/11/06 00:33:43;;;;;;;22.30;10.75;;;;;;;1.91;100.00;99243.00;5041908;28;20040;-76
2022/11/06 00:36:12;;;;;;;19.67;8.63;;;;;;;1.82;100.00;99236.69;5032319;28;20123;-76
2022/11/06 00:38:37;;;;;;;14.95;8.25;;;;;;;1.78;100.00;99253.91;5049200;28;20037;-76
2022/11/06 00:41:05;;;;;;;11.55;7.55;;;;;;;1.64;100.00;99254.31;5044632;28;20406;-76
2022/11/06 00:43:31;;;;;;;16.98;9.10;;;;;;;1.42;100.00;99228.69;5042561;28;20617;-75
2022/11/06 00:46:24;;;;;;;14.63;8.90;;;;;;;1.54;100.00;99251.59;5031534;28;20095;-76
2022/11/06 00:48:49;;;;;;;25.52;10.35;;;;;;;1.63;100.00;99241.97;5049341;28;20146;-76
2022/11/06 00:51:16;;;;;;;22.75;11.27;;;;;;;1.82;100.00;99242.00;5041381;28;20476;-76
2022/11/06 00:53:42;;;;;;;21.20;10.75;;;;;;;1.71;100.00;99231.47;5050688;28;20043;-76
2022/11/06 00:56:13;;;;;;;24.73;12.35;;;;;;;1.72;100.00;99257.16;5037237;28;20055;-76
2022/11/06 00:58:39;;;;;;;18.08;9.48;;;;;;;1.61;100.00;99246.59;5049735;28;20021;-76
2022/11/06 01:01:05;;;;;;;22.35;9.98;;;;;;;1.50;100.00;99251.03;5045074;28;20033;-76
2022/11/06 01:03:31;;;;;;;23.90;10.80;;;;;;;1.40;100.00;99252.81;5045824;28;20044;-76
2022/11/06 01:06:06;;;;;;;20.77;10.43;;;;;;;1.43;100.00;99260.53;5038206;28;20101;-77
2022/11/06 01:08:32;;;;;;;17.85;9.82;;;;;;;1.38;100.00;99254.78;5035065;28;20036;-76
2022/11/06 01:10:57;;;;;;;19.60;11.48;;;;;;;1.33;100.00;99249.00;5060198;28;20005;-77
2022/11/06 01:13:22;;;;;;;20.92;10.88;;;;;;;1.33;100.00;99243.66;5055887;28;20041;-77
2022/11/06 01:15:48;;;;;;;20.42;11.38;;;;;;;1.18;100.00;99205.00;5032646;28;20025;-76
2022/11/06 01:18:13;;;;;;;19.98;11.00;;;;;;;1.27;100.00;99206.88;5032362;28;20029;-77
2022/11/06 01:20:38;;;;;;;21.52;11.00;;;;;;;1.65;100.00;99239.97;5036639;28;20060;-76
2022/11/06 01:23:04;;;;;;;23.35;11.52;;;;;;;1.64;100.00;99223.16;5037354;28;20025;-76
2022/11/06 01:25:29;;;;;;;24.48;12.43;;;;;;;1.67;100.00;99228.19;5051801;28;20070;-76
2022/11/06 01:27:54;;;;;;;22.83;12.20;;;;;;;1.66;100.00;99241.69;5031842;28;20324;-78
2022/11/06 01:30:20;;;;;;;22.00;12.32;;;;;;;1.48;100.00;99215.66;5032165;28;20102;-78
2022/11/06 01:32:45;;;;;;;20.33;12.07;;;;;;;1.47;100.00;99226.47;5035010;28;20052;-78
2022/11/06 01:35:10;;;;;;;21.85;12.20;;;;;;;1.38;100.00;99230.78;5035362;28;20025;-78
2022/11/06 01:37:36;;;;;;;25.25;12.70;;;;;;;1.38;100.00;99241.44;5037985;28;20032;-78
2022/11/06 01:40:01;;;;;;;20.77;12.60;;;;;;;1.31;100.00;99229.66;5052736;28;20575;-78
2022/11/06 01:42:26;;;;;;;22.27;12.70;;;;;;;1.07;100.00;99192.63;5079153;28;20061;-79
2022/11/06 01:45:30;;;;;;;21.35;12.60;;;;;;;1.51;100.00;99242.06;5057151;28;20020;-78
2022/11/06 01:47:55;;;;;;;20.42;11.73;;;;;;;1.53;100.00;99224.09;5057516;28;20013;-79
2022/11/06 01:50:21;;;;;;;20.25;11.55;;;;;;;1.40;100.00;99210.16;5053223;28;20013;-78
2022/11/06 01:52:49;;;;;;;19.15;11.07;;;;;;;1.32;100.00;99212.66;5048565;28;20459;-78
2022/11/06 01:55:26;;;;;;;19.80;11.10;;;;;;;1.42;100.00;99224.22;5054853;28;20021;-78
2022/11/06 01:57:54;;;;;;;18.83;10.18;;;;;;;1.23;100.00;99226.78;5045518;28;20036;-78
2022/11/06 02:00:19;;;;;;;19.55;10.73;;;;;;;1.03;100.00;99218.72;5035238;28;20048;-77
2022/11/06 02:02:45;;;;;;;21.48;11.30;;;;;;;1.01;100.00;99210.00;5035808;28;20029;-78
2022/11/06 02:05:10;;;;;;;18.75;10.52;;;;;;;1.09;100.00;99217.31;5060702;28;20025;-77
2022/11/06 02:07:36;;;;;;;20.45;11.70;;;;;;;1.34;100.00;99226.72;5053939;28;20444;-77
2022/11/06 02:10:02;;;;;;;21.88;12.02;;;;;;;1.14;100.00;99222.25;5048084;28;20537;-77
2022/11/06 02:12:51;;;;;;;19.17;11.60;;;;;;;1.18;100.00;99229.00;5030941;28;20505;-77
2022/11/06 02:15:38;;;;;;;23.20;9.77;;;;;;;1.03;100.00;99218.72;5043217;28;20107;-77
2022/11/06 02:18:22;;;;;;;19.85;10.23;;;;;;;0.91;100.00;99230.41;5050270;28;20029;-78
2022/11/06 02:21:18;;;;;;;16.02;9.40;;;;;;;0.83;100.00;99216.91;5030030;28;20032;-78
2022/11/06 02:24:07;;;;;;;16.55;8.98;;;;;;;0.78;100.00;99203.13;5044244;28;20494;-77
2022/11/06 02:27:04;;;;;;;17.23;9.45;;;;;;;0.81;100.00;99208.19;5027646;28;20052;-77
2022/11/06 02:29:53;;;;;;;19.88;10.02;;;;;;;0.81;100.00;99192.22;5027518;28;20120;-78
2022/11/06 02:32:35;;;;;;;19.55;10.02;;;;;;;0.80;100.00;99178.06;5031004;28;20429;-78
2022/11/06 02:35:10;;;;;;;22.55;10.77;;;;;;;0.83;100.00;99176.94;5036735;28;20036;-78
2022/11/06 02:37:38;;;;;;;26.08;12.05;;;;;;;0.86;100.00;99177.56;5048725;28;20040;-77
2022/11/06 02:40:08;;;;;;;27.80;13.95;;;;;;;0.74;100.00;99159.13;5039870;28;20386;-78
2022/11/06 02:42:40;;;;;;;29.80;13.35;;;;;;;0.69;100.00;99158.66;5032360;28;20021;-78
2022/11/06 02:45:09;;;;;;;36.60;13.70;;;;;;;0.68;100.00;99154.31;5030292;28;20032;-78
2022/11/06 02:47:37;;;;;;;19.63;10.25;;;;;;;0.56;100.00;99135.75;5035364;28;20028;-78
2022/11/06 02:50:12;;;;;;;20.30;10.25;;;;;;;0.67;100.00;99163.28;5055545;28;20039;-78
2022/11/06 02:52:47;;;;;;;16.27;9.18;;;;;;;0.57;100.00;99164.03;5065994;28;20048;-78
2022/11/06 02:55:30;;;;;;;14.70;8.38;;;;;;;0.54;100.00;99169.63;5045290;28;20017;-78
2022/11/06 02:58:00;;;;;;;16.13;8.77;;;;;;;0.57;100.00;99157.88;5031864;28;20056;-79
2022/11/06 03:00:26;;;;;;;15.52;7.88;;;;;;;0.44;100.00;99142.09;5049845;28;20025;-79
2022/11/06 03:02:54;;;;;;;17.70;8.75;;;;;;;0.44;100.00;99139.44;5054732;28;20375;-79
2022/11/06 03:05:23;;;;;;;18.33;9.02;;;;;;;0.57;100.00;99145.41;5029193;28;20104;-78
2022/11/06 03:07:55;;;;;;;16.05;8.32;;;;;;;0.78;100.00;99152.53;5036957;28;20486;-78
2022/11/06 03:10:27;;;;;;;17.58;9.30;;;;;;;0.80;100.00;99137.28;5048071;28;20542;-78
2022/11/06 03:13:13;;;;;;;21.95;9.05;;;;;;;0.94;100.00;99131.56;5037488;28;20027;-78
2022/11/06 03:16:04;;;;;;;21.00;9.40;;;;;;;1.07;100.00;99128.69;5031250;28;20017;-78
2022/11/06 03:18:42;;;;;;;18.25;9.55;;;;;;;1.01;100.00;99116.75;5039879;28;20504;-78
2022/11/06 03:21:35;;;;;;;18.42;9.07;;;;;;;1.08;100.00;99135.72;5035128;28;20059;-78
2022/11/06 03:24:13;;;;;;;17.75;9.07;;;;;;;1.10;100.00;99117.75;5036187;28;20020;-77
2022/11/06 03:26:44;;;;;;;26.20;9.93;;;;;;;1.23;100.00;99118.38;5033586;28;20385;-79
2022/11/06 03:29:19;;;;;;;20.38;10.05;;;;;;;1.38;100.00;99131.31;5034379;28;20044;-78
2022/11/06 03:31:55;;;;;;;24.73;10.63;;;;;;;1.44;100.00;99130.75;5045520;28;20029;-78
2022/11/06 03:34:49;;;;;;;23.48;11.20;;;;;;;1.48;100.00;99122.34;5067766;22;20040;-72
2022/11/06 03:37:22;;;;;;;24.30;10.30;;;;;;;1.49;100.00;99132.03;5059037;28;20047;-73
2022/11/06 03:39:53;;;;;;;23.98;10.43;;;;;;;1.38;100.00;99125.97;5061351;28;20028;-73
2022/11/06 03:42:26;;;;;;;19.35;9.52;;;;;;;1.27;100.00;99118.94;5061985;28;20033;-72
2022/11/06 03:45:06;;;;;;;19.95;10.02;;;;;;;1.28;100.00;99116.16;5050862;28;20096;-72
2022/11/06 03:47:37;;;;;;;20.80;9.23;;;;;;;1.31;100.00;99123.88;5051955;28;20711;-72
2022/11/06 03:50:11;;;;;;;17.92;9.48;;;;;;;1.33;100.00;99125.53;5049469;28;20035;-72
2022/11/06 03:52:41;;;;;;;19.25;10.02;;;;;;;1.27;100.00;99114.44;5063974;28;20035;-72
2022/11/06 03:55:13;;;;;;;17.42;9.30;;;;;;;0.96;100.00;99084.34;5065874;28;20032;-72
2022/11/06 03:57:46;;;;;;;19.35;9.95;;;;;;;1.16;100.00;99089.75;5057497;28;20081;-72
2022/11/06 04:00:13;;;;;;;23.10;9.73;;;;;;;1.09;100.00;99076.94;5054158;28;20039;-72
2022/11/06 04:02:44;;;;;;;19.38;8.52;;;;;;;1.22;100.00;99105.16;5073742;28;20021;-72
2022/11/06 04:05:14;;;;;;;16.63;8.93;;;;;;;1.06;100.00;99105.69;5073253;28;20162;-72
2022/11/06 04:13:56;;;;;;;15.98;8.00;;;;;;;0.91;100.00;99091.88;5068296;28;20056;-72
2022/11/06 04:16:08;;;;;;;15.90;8.60;;;;;;;1.08;100.00;99107.25;5055439;28;21006;-72
2022/11/06 04:18:33;;;;;;;18.35;8.95;;;;;;;1.04;100.00;99097.81;5054497;28;20037;-72
2022/11/06 04:21:24;;;;;;;19.00;8.93;;;;;;;1.15;100.00;99106.69;5058039;28;20037;-72
2022/11/06 04:27:16;;;;;;;16.15;7.93;;;;;;;1.05;100.00;99096.84;5057834;28;20040;-72
2022/11/06 04:29:54;;;;;;;19.77;7.93;;;;;;;0.76;100.00;99048.81;5052704;28;20112;-72
2022/11/06 04:32:40;;;;;;;17.15;7.40;;;;;;;0.98;100.00;99094.88;5059999;28;20052;-72
2022/11/06 04:35:29;;;;;;;17.10;7.82;;;;;;;0.91;100.00;99091.06;5050838;28;20112;-72
2022/11/06 04:38:03;;;;;;;18.10;7.78;;;;;;;0.83;100.00;99083.72;5048506;28;20036;-72
2022/11/06 04:40:32;;;;;;;14.60;7.60;;;;;;;0.79;100.00;99077.84;5064915;28;20063;-72
2022/11/06 04:43:02;;;;;;;18.10;7.30;;;;;;;0.64;100.00;99055.22;5050756;28;20033;-72
2022/11/06 04:45:31;;;;;;;13.18;6.82;;;;;;;0.75;100.00;99076.41;5055874;28;20029;-72
2022/11/06 04:47:58;;;;;;;16.73;8.10;;;;;;;0.50;100.00;99029.81;5051881;28;20040;-72
2022/11/06 04:50:26;;;;;;;16.75;8.65;;;;;;;0.59;100.00;99060.09;5054811;28;20033;-72
2022/11/06 04:52:53;;;;;;;15.77;7.55;;;;;;;0.52;100.00;99045.63;5062839;28;20028;-72
2022/11/06 04:55:20;;;;;;;16.38;7.75;;;;;;;0.49;100.00;99044.06;5058667;28;20035;-72
2022/11/06 04:57:45;;;;;;;15.18;6.82;;;;;;;0.60;100.00;99048.47;5055952;28;20086;-72
2022/11/06 05:00:15;;;;;;;14.40;6.97;;;;;;;0.72;100.00;99044.72;5051619;28;20029;-72
2022/11/06 05:02:40;;;;;;;18.42;8.77;;;;;;;0.66;100.00;99026.63;5058465;28;20053;-72
2022/11/06 05:05:06;;;;;;;16.35;7.90;;;;;;;0.74;100.00;99040.13;5057418;28;20020;-72
2022/11/06 05:07:32;;;;;;;16.80;7.60;;;;;;;0.65;100.00;99027.59;5057562;28;20551;-72
2022/11/06 05:09:57;;;;;;;13.43;7.75;;;;;;;0.69;100.00;99046.84;5052673;28;20020;-72
2022/11/06 05:12:22;;;;;;;19.80;7.90;;;;;;;0.92;100.00;99050.97;5052024;28;20051;-73
2022/11/06 05:14:48;;;;;;;18.05;8.02;;;;;;;0.81;100.00;99053.72;5049661;28;20028;-72
2022/11/06 05:17:13;;;;;;;16.30;7.82;;;;;;;0.60;100.00;99029.81;5059474;28;20466;-73
2022/11/06 05:19:38;;;;;;;17.00;9.02;;;;;;;0.73;100.00;99080.19;5050682;28;20022;-72
2022/11/06 05:24:48;;;;;;;19.98;8.70;;;;;;;0.29;100.00;99044.94;5048885;28;20051;-72
2022/11/06 05:27:13;;;;;;;19.35;8.60;;;;;;;0.46;100.00;99070.13;5052712;28;20425;-72
2022/11/06 05:29:39;;;;;;;23.50;8.57;;;;;;;0.42;100.00;99069.56;5044283;28;20029;-72
2022/11/06 05:32:04;;;;;;;22.77;8.68;;;;;;;0.52;100.00;99078.41;5055432;28;20040;-72
2022/11/06 05:34:29;;;;;;;25.90;9.02;;;;;;;0.55;100.00;99086.16;5052259;28;20025;-72
2022/11/06 05:36:56;;;;;;;18.85;8.93;;;;;;;0.64;100.00;99085.34;5051210;28;20060;-72
2022/11/06 05:39:21;;;;;;;20.15;8.98;;;;;;;0.64;100.00;99093.31;5051729;28;20025;-72
2022/11/06 05:41:46;;;;;;;23.20;9.07;;;;;;;0.65;100.00;99071.06;5050607;28;20029;-72
2022/11/06 05:44:11;;;;;;;28.98;10.38;;;;;;;0.40;100.00;99028.91;5058613;28;20442;-72
2022/11/06 05:46:37;;;;;;;24.73;9.68;;;;;;;0.58;100.00;99069.91;5054291;28;20025;-72
2022/11/06 05:49:02;;;;;;;25.35;11.25;;;;;;;0.52;100.00;99075.75;5056688;28;20017;-72
2022/11/06 05:51:27;;;;;;;25.38;11.25;;;;;;;0.38;100.00;99070.78;5055656;28;20120;-72
2022/11/06 05:53:54;;;;;;;19.85;9.60;;;;;;;0.42;100.00;99090.84;5046404;28;20060;-72
2022/11/06 05:56:19;;;;;;;16.85;8.93;;;;;;;0.46;100.00;99092.25;5048376;28;20391;-72
2022/11/06 05:58:44;;;;;;;16.65;7.40;;;;;;;0.29;100.00;99052.94;5060289;28;20039;-72
2022/11/06 06:01:11;;;;;;;16.33;7.97;;;;;;;0.42;100.00;99066.91;5048929;28;20495;-72
2022/11/06 06:03:36;;;;;;;17.25;7.30;;;;;;;0.36;100.00;99062.91;5045713;28;20075;-72
2022/11/06 06:06:01;;;;;;;15.40;7.85;;;;;;;0.39;100.00;99076.00;5051181;28;20034;-72
2022/11/06 06:08:27;;;;;;;18.40;8.20;;;;;;;0.19;100.00;99061.72;5051143;28;20194;-71
2022/11/06 06:10:52;;;;;;;27.15;11.05;;;;;;;0.18;100.00;99065.38;5060230;28;20035;-73
2022/11/06 06:13:17;;;;;;;22.80;8.23;;;;;;;0.19;100.00;99064.38;5049356;28;20526;-77
2022/11/06 06:15:43;;;;;;;17.45;7.50;;;;;;;0.26;100.00;99069.16;5059451;28;20024;-78
2022/11/06 06:18:09;;;;;;;20.40;8.35;;;;;;;0.27;100.00;99066.38;5056775;28;20039;-77
2022/11/06 06:20:35;;;;;;;20.70;8.73;;;;;;;-0.08;100.00;99033.00;5056505;28;20166;-75
2022/11/06 06:23:01;;;;;;;28.23;8.90;;;;;;;0.06;100.00;99053.09;5056135;28;20115;-78
2022/11/06 06:25:27;;;;;;;29.13;11.23;;;;;;;0.31;100.00;99099.72;5055033;28;20025;-77
2022/11/06 06:27:53;;;;;;;70.22;20.88;;;;;;;0.44;100.00;99088.88;5054193;28;20111;-76
2022/11/06 06:30:20;;;;;;;46.72;14.38;;;;;;;0.22;100.00;99069.44;5050299;28;20429;-75
2022/11/06 06:32:45;;;;;;;28.35;10.23;;;;;;;0.42;100.00;99097.00;5060282;28;20029;-75
2022/11/06 06:35:11;;;;;;;51.83;9.48;;;;;;;0.47;100.00;99093.09;5051015;28;20021;-74
2022/11/06 06:37:36;;;;;;;58.25;8.45;;;;;;;0.38;100.00;99068.97;5061553;28;20060;-75
2022/11/06 06:40:03;;;;;;;46.20;8.02;;;;;;;0.32;100.00;99068.66;5053668;28;20449;-75
2022/11/06 06:42:29;;;;;;;236.95;12.60;;;;;;;0.22;100.00;99047.31;5053635;28;20024;-75
2022/11/06 06:44:54;;;;;;;30.73;6.72;;;;;;;0.32;100.00;99047.38;5054013;28;20033;-76
2022/11/06 06:47:19;;;;;;;155.10;10.18;;;;;;;0.51;100.00;99082.06;5054769;28;20036;-75
2022/11/06 06:49:45;;;;;;;118.55;9.48;;;;;;;0.46;100.00;99039.03;5066504;28;20067;-76
2022/11/06 06:52:11;;;;;;;10.48;5.50;;;;;;;1.37;100.00;99082.47;5054927;28;20112;-74
2022/11/06 06:54:36;;;;;;;39.30;7.20;;;;;;;1.93;100.00;99067.63;5059402;28;20013;-73
2022/11/06 06:57:03;;;;;;;14.10;6.35;;;;;;;2.78;100.00;99073.88;5061958;28;20041;-74
2022/11/06 06:59:28;;;;;;;47.30;6.10;;;;;;;2.73;100.00;99076.16;5060669;28;20084;-78
2022/11/06 07:01:55;;;;;;;15.52;4.93;;;;;;;3.30;100.00;99068.81;5057606;28;20056;-76
2022/11/06 07:04:20;;;;;;;7.20;4.10;;;;;;;4.03;100.00;99031.19;5060240;28;20456;-76
2022/11/06 07:06:45;;;;;;;6.55;4.50;;;;;;;5.11;100.00;99017.34;5055834;28;20025;-75
2022/11/06 07:09:10;;;;;;;10.23;4.53;;;;;;;5.02;100.00;98977.09;5055835;28;20025;-78
2022/11/06 07:11:36;;;;;;;16.98;6.95;;;;;;;5.84;100.00;98934.25;5056913;28;20096;-78
2022/11/06 07:14:01;;;;;;;12.90;6.05;;;;;;;5.95;100.00;98959.94;5055873;28;20021;-74
2022/11/06 07:16:28;;;;;;;12.55;5.68;;;;;;;7.23;100.00;98947.16;5054767;28;20037;-75
2022/11/06 07:18:54;;;;;;;10.73;5.95;;;;;;;8.02;100.00;98946.03;5060250;28;20029;-75
2022/11/06 07:21:20;;;;;;;10.40;6.00;;;;;;;8.61;100.00;98929.03;5062891;28;20032;-76
2022/11/06 07:23:46;;;;;;;8.65;5.32;;;;;;;9.58;100.00;98916.00;5053403;28;20040;-75
2022/11/06 07:26:11;;;;;;;11.27;6.18;;;;;;;11.09;100.00;98891.94;5054984;28;20036;-74
2022/11/06 07:28:36;;;;;;;13.27;7.13;;;;;;;11.92;100.00;98905.19;5057944;28;20394;-78
2022/11/06 07:31:05;;;;;;;10.90;6.60;;;;;;;12.99;100.00;98913.00;5055447;28;20040;-77
2022/11/06 07:33:30;;;;;;;9.77;6.00;;;;;;;12.79;76.99;98915.84;5056841;28;20489;-77
2022/11/06 07:36:01;;;;;;;8.68;5.10;;;;;;;12.81;81.81;98895.56;5054704;28;20060;-77
2022/11/06 07:38:26;;;;;;;9.20;4.60;;;;;;;11.85;76.92;98905.13;5058451;28;20481;-77
2022/11/06 07:41:00;;;;;;;9.40;5.30;;;;;;;12.03;87.16;98888.25;5056787;28;20040;-78
2022/11/06 07:43:26;;;;;;;6.60;4.60;;;;;;;13.49;78.30;98880.56;5049776;28;20406;-77
2022/11/06 07:45:51;;;;;;;8.25;5.03;;;;;;;15.22;73.49;98862.38;5050021;28;20013;-76
2022/11/06 07:48:17;;;;;;;7.40;5.40;;;;;;;14.42;63.38;98875.09;5050304;28;20032;-77
2022/11/06 07:50:42;;;;;;;6.72;4.57;;;;;;;13.32;65.29;98848.50;5048197;28;20114;-77
2022/11/06 07:53:07;;;;;;;6.97;4.82;;;;;;;12.05;75.60;98836.50;5044960;28;20040;-78
2022/11/06 07:55:33;;;;;;;6.60;4.72;;;;;;;11.76;79.49;98851.34;5050776;28;20111;-78
2022/11/06 07:57:58;;;;;;;6.63;5.00;;;;;;;11.52;94.97;98831.97;5048921;28;20029;-78
2022/11/06 08:00:23;;;;;;;5.47;4.55;;;;;;;10.06;90.01;98854.00;5047305;28;20025;-77
2022/11/06 08:02:51;;;;;;;6.32;3.88;;;;;;;10.65;90.39;98836.41;5043354;28;20044;-77
2022/11/06 08:05:16;;;;;;;5.60;3.65;;;;;;;10.51;88.20;98797.66;5042687;28;20029;-76
2022/11/06 08:07:41;;;;;;;6.78;5.68;;;;;;;11.65;78.71;98830.31;5045976;28;20058;-77
2022/11/06 08:10:07;;;;;;;4.45;3.78;;;;;;;12.84;70.29;98837.28;5044616;28;20036;-71
2022/11/06 08:12:32;;;;;;;4.88;3.25;;;;;;;15.09;66.37;98808.88;5051268;28;20078;-78
2022/11/06 08:14:57;;;;;;;3.55;3.00;;;;;;;16.69;56.85;98834.22;5055644;28;20021;-77
2022/11/06 08:17:23;;;;;;;2.72;2.08;;;;;;;17.74;56.55;98816.44;5057055;28;20029;-80
2022/11/06 08:19:48;;;;;;;3.05;2.25;;;;;;;17.13;52.82;98809.91;5056974;28;20474;-78
2022/11/06 08:22:14;;;;;;;2.10;1.90;;;;;;;17.49;51.33;98821.47;5055886;28;20033;-74
2022/11/06 08:24:39;;;;;;;2.33;1.90;;;;;;;17.56;51.88;98791.25;5056304;28;20102;-75
2022/11/06 08:27:04;;;;;;;2.72;2.28;;;;;;;16.79;54.09;98803.53;5059272;28;20025;-76
2022/11/06 08:29:30;;;;;;;4.07;3.10;;;;;;;16.37;53.45;98796.41;5051623;28;20378;-77
2022/11/06 08:31:55;;;;;;;5.68;3.22;;;;;;;17.65;51.19;98803.41;5066428;28;20020;-76
2022/11/06 08:34:20;;;;;;;4.90;3.47;;;;;;;16.13;55.23;98797.50;5058594;28;20033;-76
2022/11/06 08:36:46;;;;;;;4.70;3.42;;;;;;;15.37;57.92;98826.50;5032122;28;20037;-75
2022/11/06 08:39:12;;;;;;;7.47;4.10;;;;;;;16.13;57.76;98814.72;5047976;28;20035;-77
2022/11/06 08:41:41;;;;;;;5.72;3.97;;;;;;;17.45;55.88;98814.88;5070708;28;20017;-77
2022/11/06 08:44:06;;;;;;;5.18;3.75;;;;;;;18.87;53.33;98818.00;5057565;28;20017;-77
2022/11/06 08:46:31;;;;;;;4.65;3.35;;;;;;;18.51;51.03;98819.44;5056437;28;20021;-77
2022/11/06 08:48:56;;;;;;;4.55;3.45;;;;;;;18.20;53.26;98813.56;5050086;28;20020;-77
2022/11/06 08:51:22;;;;;;;5.13;3.60;;;;;;;18.33;51.17;98799.50;5052451;28;20024;-79
2022/11/06 08:53:47;;;;;;;7.40;4.57;;;;;;;18.04;54.24;98828.13;5064833;28;20107;-79
2022/11/06 08:56:13;;;;;;;3.70;3.00;;;;;;;17.37;54.58;98818.84;5055997;28;20078;-78
2022/11/06 08:58:38;;;;;;;4.28;3.13;;;;;;;17.59;53.60;98788.81;5048017;28;20502;-77
2022/11/06 09:01:03;;;;;;;4.95;3.50;;;;;;;17.74;54.35;98797.28;5052480;28;20025;-77
2022/11/06 09:03:29;;;;;;;5.32;3.60;;;;;;;18.37;52.11;98819.00;5048808;28;20031;-78
2022/11/06 09:05:54;;;;;;;8.02;4.20;;;;;;;17.19;55.72;98799.91;5054659;28;20032;-78
2022/11/06 09:08:19;;;;;;;5.43;3.60;;;;;;;18.00;53.71;98808.63;5055782;28;20139;-79
2022/11/06 09:10:45;;;;;;;6.10;4.05;;;;;;;17.22;55.44;98802.16;5052401;28;20080;-79
2022/11/06 09:13:11;;;;;;;4.75;3.78;;;;;;;18.49;53.12;98792.28;5053965;28;20039;-78
2022/11/06 09:15:37;;;;;;;5.57;3.47;;;;;;;18.76;50.69;98802.53;5049694;28;20023;-76
2022/11/06 09:18:02;;;;;;;6.10;3.55;;;;;;;17.94;53.78;98769.38;5050796;28;22622;-77
2022/11/06 09:20:28;;;;;;;6.10;4.10;;;;;;;17.97;54.70;98814.59;5058139;28;20016;-77
2022/11/06 09:22:53;;;;;;;3.90;3.25;;;;;;;18.91;51.05;98802.66;5065911;28;20020;-77
2022/11/06 09:25:19;;;;;;;5.20;3.60;;;;;;;19.43;51.48;98818.53;5047445;28;20502;-77
2022/11/06 09:27:45;;;;;;;5.97;3.80;;;;;;;20.50;48.35;98832.22;5054398;28;20031;-78
2022/11/06 09:30:13;;;;;;;5.32;3.75;;;;;;;20.64;49.33;98799.59;5059768;28;20111;-77
2022/11/06 09:32:45;;;;;;;5.50;4.00;;;;;;;19.88;48.74;98852.97;5060456;28;20107;-80
2022/11/06 09:35:10;;;;;;;6.15;3.97;;;;;;;19.11;49.69;98828.66;5053540;28;20163;-78
2022/11/06 09:37:36;;;;;;;7.65;4.18;;;;;;;21.36;46.34;98835.53;5051345;28;20061;-80
2022/11/06 09:40:03;;;;;;;3.95;3.35;;;;;;;21.56;45.74;98827.34;5049839;28;20033;-80
2022/11/06 09:42:34;;;;;;;6.22;3.80;;;;;;;21.90;45.24;98821.25;5049472;28;20592;-77
2022/11/06 09:45:09;;;;;;;4.57;3.60;;;;;;;20.23;46.84;98815.88;5059823;28;20017;-77
2022/11/06 09:47:40;;;;;;;5.80;4.25;;;;;;;21.40;45.67;98820.97;5059993;28;20036;-81
2022/11/06 09:50:14;;;;;;;5.65;3.97;;;;;;;20.41;45.46;98797.25;5061028;28;20104;-79
2022/11/06 09:52:54;;;;;;;7.07;4.75;;;;;;;18.91;48.79;98802.66;5063038;28;20040;-79
2022/11/06 09:55:34;;;;;;;5.05;4.03;;;;;;;17.87;52.95;98798.03;5080741;28;20114;-80
2022/11/06 09:58:12;;;;;;;7.63;4.90;;;;;;;18.59;50.54;98789.69;5057718;28;20478;-77
2022/11/06 10:00:38;;;;;;;7.97;4.75;;;;;;;18.42;51.83;98786.19;5053449;28;20052;-78
2022/11/06 10:03:25;;;;;;;6.05;4.55;;;;;;;17.52;53.66;98799.09;5069336;28;20020;-78
2022/11/06 10:05:52;;;;;;;6.95;4.30;;;;;;;17.94;53.29;98788.53;5057570;28;20104;-77
2022/11/06 10:08:27;;;;;;;7.70;4.47;;;;;;;18.66;51.90;98785.94;5064231;28;20532;-77
2022/11/06 10:11:12;;;;;;;6.75;4.82;;;;;;;17.43;54.65;98770.50;5043166;28;20506;-78
2022/11/06 10:13:53;;;;;;;6.38;4.30;;;;;;;18.08;52.70;98764.41;5052286;28;20024;-77
2022/11/06 10:16:46;;;;;;;5.97;4.43;;;;;;;18.42;53.98;98785.34;5061868;28;20390;-77
2022/11/06 10:19:30;;;;;;;6.93;4.78;;;;;;;18.53;52.49;98779.75;5059734;28;20634;-78
2022/11/06 10:22:07;;;;;;;6.80;4.90;;;;;;;19.11;51.40;98771.06;5063889;28;20501;-78
2022/11/06 10:24:45;;;;;;;6.90;4.63;;;;;;;18.40;51.93;98741.78;5050405;28;20025;-77
2022/11/06 10:27:16;;;;;;;9.73;4.77;;;;;;;19.00;51.22;98760.00;5057126;28;20100;-77
2022/11/06 10:29:53;;;;;;;7.20;5.07;;;;;;;17.79;54.46;98746.41;5055494;28;20333;-78
2022/11/06 10:32:40;;;;;;;6.28;4.97;;;;;;;17.33;55.63;98743.00;5068841;28;20028;-77
2022/11/06 10:35:26;;;;;;;7.45;5.38;;;;;;;17.74;55.57;98728.03;5050524;28;20030;-77
2022/11/06 10:38:13;;;;;;;6.28;4.78;;;;;;;17.78;54.76;98731.09;5044019;28;20033;-78
2022/11/06 10:40:42;;;;;;;9.70;4.47;;;;;;;17.81;55.09;98704.06;5056766;28;20069;-78
2022/11/06 10:43:15;;;;;;;;;;;;;;;17.98;54.72;98709.50;5068931;28;20107;-77
2022/11/06 10:45:47;;;;;;;7.85;5.45;;;;;;;17.70;54.56;98688.56;5067162;28;19913;-77
2022/11/06 10:48:26;;;;;;;7.82;4.88;;;;;;;17.08;57.98;98689.53;5064896;28;20078;-78
2022/11/06 10:51:01;;;;;;;7.05;5.07;;;;;;;17.48;56.73;98692.09;5053840;28;20082;-78
2022/11/06 10:53:55;;;;;;;6.53;4.63;;;;;;;17.42;57.48;98684.91;5064150;28;20106;-77
2022/11/06 10:56:48;;;;;;;6.10;4.75;;;;;;;17.10;59.00;98676.47;5059523;28;20099;-77
2022/11/06 10:59:15;;;;;;;6.72;5.00;;;;;;;17.81;57.94;98663.00;5049906;28;20067;-77
2022/11/06 11:01:40;;;;;;;5.70;4.38;;;;;;;17.78;57.84;98655.28;5054843;28;20024;-77
2022/11/06 11:04:06;;;;;;;7.50;4.60;;;;;;;18.39;56.00;98656.06;5051522;28;20593;-77
2022/11/06 11:06:31;;;;;;;10.07;4.80;;;;;;;18.11;56.38;98626.16;5058041;28;20021;-77
2022/11/06 11:08:57;;;;;;;6.13;4.78;;;;;;;18.20;57.19;98599.16;5060671;28;20031;-77
2022/11/06 11:11:23;;;;;;;8.70;5.82;;;;;;;17.45;59.45;98634.34;5057049;28;20036;-77
2022/11/06 11:13:50;;;;;;;7.82;5.68;;;;;;;17.81;58.72;98626.63;5049066;28;20074;-77
2022/11/06 11:16:20;;;;;;;7.00;5.22;;;;;;;18.04;58.03;98620.06;5054932;28;20040;-77
2022/11/06 11:18:46;;;;;;;7.78;5.03;;;;;;;17.51;60.52;98552.09;5056862;28;20444;-77
2022/11/06 11:21:12;;;;;;;6.05;4.57;;;;;;;18.48;58.76;98604.34;5054764;28;20673;-77
2022/11/06 11:23:37;;;;;;;6.50;4.15;;;;;;;18.83;56.39;98586.59;5053901;28;20028;-77
2022/11/06 11:26:23;;;;;;;5.95;4.28;;;;;;;18.96;55.47;98560.63;5059823;28;20478;-77
2022/11/06 11:28:54;;;;;;;4.20;2.60;;;;;;;18.11;53.52;98530.34;5050449;28;20519;-79
2022/11/06 11:31:26;;;;;;;3.38;2.35;;;;;;;16.99;56.90;98568.88;5058092;28;20516;-76
2022/11/06 11:33:55;;;;;;;4.00;2.13;;;;;;;17.20;55.89;98550.88;5072480;28;20021;-77
2022/11/06 11:36:22;;;;;;;2.05;1.70;;;;;;;17.87;54.56;98549.00;5074485;28;20032;-77
2022/11/06 11:38:47;;;;;;;4.95;2.05;;;;;;;18.01;52.75;98544.75;5081040;28;20020;-79
2022/11/06 11:41:18;;;;;;;2.65;2.03;;;;;;;18.39;51.78;98559.34;5061686;28;20060;-78
2022/11/06 11:43:55;;;;;;;3.30;1.90;;;;;;;17.42;52.81;98550.91;5052746;28;20049;-77
2022/11/06 11:46:20;;;;;;;2.63;1.75;;;;;;;16.41;54.70;98543.63;5054564;28;20519;-76
2022/11/06 11:48:54;;;;;;;2.03;1.40;;;;;;;16.12;56.28;98540.13;5054431;28;20064;-76
2022/11/06 11:51:23;;;;;;;2.25;1.45;;;;;;;16.11;57.32;98549.41;5060229;28;20079;-76
2022/11/06 11:53:49;;;;;;;1.80;1.25;;;;;;;16.71;56.92;98525.25;5058439;28;20021;-75